Time;durP1;ratioP1;P1;durP2;ratioP2;P2;SDS_P1;SDS_P2;PMS_P1;PMS_P2;Temp;Humidity;BMP_temperature;BMP_pressure;BME280_temperature;BME280_humidity;BME280_pressure;Samples;Min_cycle;Max_cycle;Signal;HPM_P1;HPM_P2
2022/04/25 00:00:06;;;;;;;7.90;4.35;;;16.10;55.90;;;;;;4912750;29;20052;-77
2022/04/25 00:02:32;;;;;;;5.45;4.05;;;16.10;55.80;;;;;;4907818;29;20364;-75
2022/04/25 00:04:57;;;;;;;7.95;4.00;;;16.10;55.90;;;;;;4917467;29;20052;-77
2022/04/25 00:07:23;;;;;;;9.02;4.45;;;16.10;55.90;;;;;;4919247;29;20063;-78
2022/04/25 00:09:49;;;;;;;8.32;4.00;;;16.10;55.90;;;;;;4918882;29;20052;-77
2022/04/25 00:12:15;;;;;;;7.47;3.88;;;16.00;56.00;;;;;;4918922;29;20127;-77
2022/04/25 00:14:41;;;;;;;8.05;3.58;;;16.00;56.10;;;;;;4919341;29;20083;-77
2022/04/25 00:17:07;;;;;;;7.78;3.75;;;16.00;56.10;;;;;;4917751;29;20059;-77
2022/04/25 00:19:35;;;;;;;7.32;3.80;;;16.00;56.10;;;;;;4918990;29;20350;-77
2022/04/25 00:22:01;;;;;;;8.43;3.47;;;16.00;56.20;;;;;;4918682;29;20084;-77
2022/04/25 00:24:27;;;;;;;9.10;3.90;;;16.00;56.30;;;;;;4918764;29;20448;-76
2022/04/25 00:26:53;;;;;;;5.57;2.78;;;16.00;56.20;;;;;;4919139;29;20048;-77
2022/04/25 00:29:19;;;;;;;8.20;3.20;;;16.00;56.30;;;;;;4918920;29;20396;-78
2022/04/25 00:31:45;;;;;;;8.98;3.15;;;16.00;56.30;;;;;;4915852;29;20124;-78
2022/04/25 00:34:10;;;;;;;7.03;3.25;;;16.00;56.30;;;;;;4900224;29;20405;-75
2022/04/25 00:36:36;;;;;;;9.18;3.25;;;16.00;56.20;;;;;;4900360;29;20135;-77
2022/04/25 00:39:02;;;;;;;5.43;2.45;;;16.00;56.30;;;;;;4898776;29;20048;-77
2022/04/25 00:41:30;;;;;;;11.10;3.17;;;16.00;56.30;;;;;;4901806;29;20361;-77
2022/04/25 00:43:56;;;;;;;7.10;2.97;;;16.00;56.20;;;;;;4903831;29;20055;-78
2022/04/25 00:46:24;;;;;;;6.15;2.25;;;16.00;56.20;;;;;;4903307;29;20048;-77
2022/04/25 00:48:50;;;;;;;8.32;2.78;;;16.00;56.20;;;;;;4903752;29;20087;-79
2022/04/25 00:51:17;;;;;;;9.23;2.40;;;16.00;56.20;;;;;;4902992;29;20156;-79
2022/04/25 00:53:44;;;;;;;6.78;3.58;;;16.00;56.20;;;;;;4903295;29;20060;-78
2022/04/25 00:56:12;;;;;;;9.60;3.10;;;16.00;56.20;;;;;;4902632;29;20139;-76
2022/04/25 00:58:38;;;;;;;6.63;2.83;;;15.90;56.20;;;;;;4906980;29;20052;-77
2022/04/25 01:01:04;;;;;;;6.88;2.78;;;15.90;56.80;;;;;;4922256;29;20365;-76
2022/04/25 01:03:30;;;;;;;11.07;3.15;;;15.90;56.20;;;;;;4921694;29;20051;-77
2022/04/25 01:05:56;;;;;;;7.18;2.90;;;15.90;56.20;;;;;;4921599;29;20048;-77
2022/04/25 01:08:22;;;;;;;7.93;2.80;;;15.90;56.20;;;;;;4921832;29;20475;-76
2022/04/25 01:10:48;;;;;;;6.18;2.58;;;15.90;56.20;;;;;;4922184;29;20063;-77
2022/04/25 01:13:14;;;;;;;11.07;3.63;;;15.90;56.20;;;;;;4922051;29;20044;-77
2022/04/25 01:15:40;;;;;;;10.80;3.10;;;15.90;56.20;;;;;;4922341;29;20456;-76
2022/04/25 01:18:06;;;;;;;5.35;3.05;;;15.90;56.20;;;;;;4921941;29;20060;-77
2022/04/25 01:20:32;;;;;;;8.65;3.10;;;15.80;56.20;;;;;;4921134;29;20060;-78
2022/04/25 01:28:36;;;;;;;5.47;2.88;;;15.80;56.50;;;;;;4916816;29;20056;-77
2022/04/25 01:31:02;;;;;;;6.95;3.50;;;15.80;56.50;;;;;;4903092;29;20048;-77
2022/04/25 01:33:27;;;;;;;7.63;3.05;;;15.80;56.50;;;;;;4902666;29;20057;-78
2022/04/25 01:35:53;;;;;;;7.70;2.80;;;15.80;56.50;;;;;;4933966;29;20074;-77
2022/04/25 01:38:19;;;;;;;4.95;2.80;;;15.80;56.40;;;;;;4902756;29;20059;-76
2022/04/25 01:40:44;;;;;;;6.60;2.85;;;15.80;56.40;;;;;;4902684;29;20056;-77
2022/04/25 01:43:10;;;;;;;6.53;2.88;;;15.70;56.30;;;;;;4902289;29;20060;-76
2022/04/25 01:45:36;;;;;;;6.53;2.97;;;15.70;56.20;;;;;;4902330;29;20044;-78
2022/04/25 01:48:02;;;;;;;7.60;2.97;;;15.70;56.20;;;;;;4902776;29;20505;-78
2022/04/25 01:50:27;;;;;;;6.03;2.58;;;15.70;56.20;;;;;;4902842;29;20088;-78
2022/04/25 01:52:56;;;;;;;6.82;3.28;;;15.70;56.20;;;;;;4900275;29;20045;-80
2022/04/25 01:55:22;;;;;;;6.03;3.13;;;15.70;56.30;;;;;;4901485;29;20094;-78
2022/04/25 01:57:47;;;;;;;5.57;3.45;;;15.70;56.40;;;;;;4902147;29;20080;-79
2022/04/25 02:00:13;;;;;;;7.63;3.45;;;15.70;56.30;;;;;;4917195;29;20122;-78
2022/04/25 02:02:39;;;;;;;7.10;3.40;;;15.60;56.20;;;;;;4908078;29;20115;-78
2022/04/25 02:05:06;;;;;;;6.03;3.15;;;15.60;56.30;;;;;;4902161;29;20088;-78
2022/04/25 02:07:32;;;;;;;7.00;3.88;;;15.60;56.30;;;;;;4932994;29;20111;-78
2022/04/25 02:09:58;;;;;;;7.20;4.07;;;15.50;56.30;;;;;;4901850;29;20048;-80
2022/04/25 02:12:24;;;;;;;5.63;3.30;;;15.50;56.40;;;;;;4901805;29;20370;-78
2022/04/25 02:14:50;;;;;;;6.78;3.53;;;15.50;56.40;;;;;;4933044;29;20185;-78
2022/04/25 02:17:16;;;;;;;7.80;4.13;;;15.50;56.40;;;;;;4901902;29;20353;-77
2022/04/25 02:19:44;;;;;;;7.40;3.85;;;15.50;56.50;;;;;;4902087;29;20048;-79
2022/04/25 02:22:11;;;;;;;11.55;4.38;;;15.50;56.40;;;;;;4902021;29;20457;-78
2022/04/25 02:24:40;;;;;;;6.85;3.63;;;15.50;56.40;;;;;;4901921;29;20057;-77
2022/04/25 02:27:07;;;;;;;6.65;3.80;;;15.50;56.40;;;;;;4902647;29;20088;-78
2022/04/25 02:29:43;;;;;;;7.40;3.67;;;15.50;56.50;;;;;;4901105;29;20132;-78
2022/04/25 02:32:12;;;;;;;7.07;3.47;;;15.50;56.40;;;;;;4901874;29;20044;-78
2022/04/25 02:34:39;;;;;;;7.68;3.97;;;15.50;56.40;;;;;;4901815;29;20377;-78
2022/04/25 02:37:05;;;;;;;5.88;3.60;;;15.50;56.20;;;;;;4900758;29;20067;-77
2022/04/25 02:39:30;;;;;;;7.20;4.13;;;15.50;56.00;;;;;;4901930;29;20048;-79
2022/04/25 02:41:56;;;;;;;6.32;3.70;;;15.60;55.90;;;;;;4901232;29;20446;-79
2022/04/25 02:44:22;;;;;;;6.82;4.20;;;15.50;55.80;;;;;;4900529;29;20049;-78
2022/04/25 02:46:47;;;;;;;6.47;4.20;;;15.50;55.70;;;;;;4901204;29;20440;-78
2022/04/25 02:49:13;;;;;;;7.57;3.72;;;15.40;55.60;;;;;;4901463;29;20044;-78
2022/04/25 02:51:39;;;;;;;6.72;3.63;;;15.40;55.60;;;;;;4931950;29;20165;-78
2022/04/25 02:54:04;;;;;;;6.13;3.85;;;15.40;55.60;;;;;;4901043;29;20063;-78
2022/04/25 02:56:31;;;;;;;6.80;3.88;;;15.30;55.60;;;;;;4933506;29;20072;-78
2022/04/25 02:58:56;;;;;;;7.00;4.07;;;15.30;55.70;;;;;;4903959;29;20409;-78
2022/04/25 03:01:22;;;;;;;7.10;3.78;;;15.30;55.60;;;;;;4919999;29;20094;-77
2022/04/25 03:03:48;;;;;;;8.88;4.80;;;15.30;55.60;;;;;;4920006;29;20083;-78
2022/04/25 03:06:13;;;;;;;7.85;4.00;;;15.30;55.60;;;;;;4903147;29;20052;-77
2022/04/25 03:08:39;;;;;;;6.18;4.15;;;15.20;55.60;;;;;;4919668;29;20062;-77
2022/04/25 03:11:11;;;;;;;8.57;4.28;;;15.20;55.60;;;;;;4919654;29;20468;-77
2022/04/25 03:13:38;;;;;;;6.72;4.05;;;15.20;55.60;;;;;;4919435;29;20481;-77
2022/04/25 03:16:05;;;;;;;5.97;3.97;;;15.20;55.70;;;;;;4903374;29;20052;-79
2022/04/25 03:18:32;;;;;;;6.90;4.10;;;15.20;55.80;;;;;;4902432;29;20056;-79
2022/04/25 03:20:58;;;;;;;6.93;4.65;;;15.10;55.90;;;;;;4919803;29;20051;-79
2022/04/25 03:23:25;;;;;;;6.10;3.80;;;15.10;56.00;;;;;;4919580;29;20058;-78
2022/04/25 03:25:51;;;;;;;7.72;3.72;;;15.10;56.10;;;;;;4919295;29;20048;-79
2022/04/25 03:28:17;;;;;;;6.88;3.67;;;15.10;56.30;;;;;;4919340;29;20098;-78
2022/04/25 03:30:43;;;;;;;8.35;4.00;;;15.10;56.30;;;;;;4919510;29;20135;-80
2022/04/25 03:33:12;;;;;;;6.40;3.88;;;15.10;56.30;;;;;;4920031;29;20144;-78
2022/04/25 03:35:40;;;;;;;5.97;4.32;;;15.10;56.40;;;;;;4918280;29;20134;-79
2022/04/25 03:38:06;;;;;;;7.60;3.90;;;15.10;56.40;;;;;;4918689;29;20059;-77
2022/04/25 03:40:35;;;;;;;8.65;3.80;;;15.10;56.40;;;;;;4918714;29;20520;-79
2022/04/25 03:43:02;;;;;;;5.85;3.25;;;15.10;56.50;;;;;;4918565;29;20062;-78
2022/04/25 03:45:28;;;;;;;4.00;3.10;;;15.10;56.50;;;;;;4918606;29;20055;-78
2022/04/25 03:47:54;;;;;;;6.25;3.75;;;15.10;56.60;;;;;;4919470;29;20142;-78
2022/04/25 03:50:20;;;;;;;8.77;3.72;;;15.10;56.60;;;;;;4918815;29;20091;-80
2022/04/25 03:52:46;;;;;;;5.90;3.30;;;15.00;56.60;;;;;;4933979;29;20083;-80
2022/04/25 03:58:01;;;;;;;6.05;3.40;;;15.10;56.70;;;;;;4900352;29;20064;-77
2022/04/25 04:00:28;;;;;;;6.30;3.35;;;15.10;56.80;;;;;;4899320;29;20056;-77
2022/04/25 04:02:54;;;;;;;7.03;3.80;;;15.10;56.80;;;;;;4914627;29;20131;-77
2022/04/25 04:05:20;;;;;;;5.13;2.85;;;15.10;56.80;;;;;;4918885;29;20131;-79
2022/04/25 04:07:47;;;;;;;7.45;3.42;;;15.10;56.90;;;;;;4919177;29;20055;-78
2022/04/25 04:10:13;;;;;;;9.23;3.60;;;15.10;56.80;;;;;;4919645;29;20318;-79
2022/04/25 04:12:39;;;;;;;8.05;3.72;;;15.10;56.80;;;;;;4918961;29;20110;-77
2022/04/25 04:15:06;;;;;;;6.85;3.15;;;15.10;56.80;;;;;;4917830;29;20115;-77
2022/04/25 04:17:32;;;;;;;6.18;3.13;;;15.10;56.80;;;;;;4918920;29;20052;-79
2022/04/25 04:19:58;;;;;;;7.47;3.50;;;15.10;56.80;;;;;;4918593;29;20503;-77
2022/04/25 04:22:25;;;;;;;7.28;2.75;;;15.10;56.80;;;;;;4918345;29;20080;-77
2022/04/25 04:24:51;;;;;;;5.88;3.05;;;15.10;57.50;;;;;;4918714;29;20067;-77
2022/04/25 04:27:18;;;;;;;5.47;2.78;;;15.10;56.80;;;;;;4918536;29;20456;-80
2022/04/25 04:29:44;;;;;;;5.85;3.33;;;15.10;56.80;;;;;;4918536;29;20056;-77
2022/04/25 04:32:13;;;;;;;6.38;3.28;;;15.10;56.80;;;;;;4934240;29;20125;-78
2022/04/25 04:34:39;;;;;;;6.15;3.33;;;15.10;56.80;;;;;;4918612;29;20063;-76
2022/04/25 04:37:06;;;;;;;6.82;3.10;;;15.10;56.80;;;;;;4917731;29;20052;-79
2022/04/25 04:39:32;;;;;;;5.78;2.65;;;15.10;56.70;;;;;;4918805;29;20052;-77
2022/04/25 04:41:58;;;;;;;8.45;3.65;;;15.10;56.70;;;;;;4918910;29;20139;-77
2022/04/25 04:44:24;;;;;;;6.22;2.78;;;15.10;56.60;;;;;;4933702;29;20476;-77
2022/04/25 04:46:50;;;;;;;4.53;2.95;;;15.10;56.50;;;;;;4919061;29;20052;-77
2022/04/25 04:49:16;;;;;;;5.68;3.17;;;15.10;56.40;;;;;;4918602;29;20119;-77
2022/04/25 04:51:42;;;;;;;5.75;2.88;;;15.10;56.30;;;;;;4918470;29;20048;-78
2022/04/25 04:54:08;;;;;;;6.68;3.15;;;15.10;56.30;;;;;;4918519;29;20051;-78
2022/04/25 04:56:34;;;;;;;8.30;3.25;;;15.10;56.40;;;;;;4920199;29;20111;-76
2022/04/25 04:59:00;;;;;;;4.88;3.17;;;15.00;56.30;;;;;;4898572;29;20057;-76
2022/04/25 05:01:26;;;;;;;5.70;3.17;;;15.00;56.30;;;;;;4900042;29;20048;-76
2022/04/25 05:03:58;;;;;;;8.73;2.97;;;15.00;56.30;;;;;;4899534;29;20097;-77
2022/04/25 05:06:28;;;;;;;8.43;3.50;;;15.00;56.30;;;;;;4898627;29;20048;-78
2022/04/25 05:08:54;;;;;;;6.40;3.30;;;15.00;56.30;;;;;;4930323;29;20061;-77
2022/04/25 05:11:21;;;;;;;8.30;3.90;;;15.00;56.40;;;;;;4898616;29;20378;-78
2022/04/25 05:13:47;;;;;;;5.40;3.45;;;15.00;56.30;;;;;;4898588;29;20084;-79
2022/04/25 05:16:13;;;;;;;6.00;3.00;;;15.00;56.30;;;;;;4899804;29;20052;-77
2022/04/25 05:18:38;;;;;;;5.93;3.45;;;15.00;56.40;;;;;;4898851;29;20061;-77
2022/04/25 05:21:05;;;;;;;5.78;3.10;;;15.00;56.40;;;;;;4899500;29;20087;-77
2022/04/25 05:23:31;;;;;;;5.55;3.15;;;15.00;56.40;;;;;;4900110;29;20414;-78
2022/04/25 05:25:58;;;;;;;5.85;3.17;;;15.00;56.50;;;;;;4906892;29;20056;-78
2022/04/25 05:28:25;;;;;;;8.68;3.55;;;15.00;56.50;;;;;;4919737;29;20108;-78
2022/04/25 05:30:51;;;;;;;7.03;3.08;;;15.00;56.40;;;;;;4921464;29;20056;-77
2022/04/25 05:33:18;;;;;;;5.57;3.25;;;15.00;56.50;;;;;;4905305;29;20048;-77
2022/04/25 05:35:45;;;;;;;7.50;3.25;;;15.00;57.20;;;;;;4921477;29;20054;-80
2022/04/25 05:38:12;;;;;;;6.43;3.40;;;15.00;56.50;;;;;;4920653;29;20058;-79
2022/04/25 05:40:39;;;;;;;4.80;2.78;;;15.00;56.50;;;;;;4921624;29;20052;-78
2022/04/25 05:43:06;;;;;;;6.43;3.30;;;15.00;56.50;;;;;;4921636;29;20060;-77
2022/04/25 05:45:33;;;;;;;5.35;3.13;;;14.90;56.60;;;;;;4921011;29;20067;-77
2022/04/25 05:47:59;;;;;;;5.47;3.17;;;14.90;56.60;;;;;;4920701;29;20051;-77
2022/04/25 05:53:11;;;;;;;6.90;3.33;;;14.90;56.60;;;;;;4920757;29;20056;-77
2022/04/25 05:55:37;;;;;;;5.80;3.15;;;15.00;56.60;;;;;;4913345;29;20054;-77
2022/04/25 05:58:06;;;;;;;5.50;3.50;;;14.90;56.60;;;;;;4902281;29;20350;-78
2022/04/25 06:00:33;;;;;;;7.00;3.20;;;14.90;56.70;;;;;;4902323;29;20055;-78
2022/04/25 06:03:00;;;;;;;5.10;2.88;;;14.90;56.60;;;;;;4916341;29;20154;-78
2022/04/25 06:05:27;;;;;;;6.78;3.75;;;14.90;56.60;;;;;;4920964;29;20075;-79
2022/04/25 06:07:52;;;;;;;6.65;3.40;;;14.90;56.60;;;;;;4921083;29;20044;-78
2022/04/25 06:10:22;;;;;;;11.15;3.65;;;14.90;56.70;;;;;;4920607;29;20111;-83
2022/04/25 06:12:50;;;;;;;4.40;3.17;;;14.90;56.90;;;;;;4918367;29;20365;-77
2022/04/25 06:15:21;;;;;;;9.88;3.05;;;14.90;57.30;;;;;;4920990;29;20119;-79
2022/04/25 06:17:47;;;;;;;4.50;2.10;;;15.00;57.70;;;;;;4920364;29;20060;-80
2022/04/25 06:20:13;;;;;;;7.53;2.20;;;15.10;57.60;;;;;;4935612;29;20059;-77
2022/04/25 06:22:39;;;;;;;9.02;2.33;;;15.40;57.50;;;;;;4920543;29;20056;-77
2022/04/25 06:25:06;;;;;;;7.97;2.10;;;15.70;57.20;;;;;;4920555;29;20405;-78
2022/04/25 06:27:32;;;;;;;13.02;2.83;;;15.90;57.30;;;;;;4919946;29;20465;-78
2022/04/25 06:29:58;;;;;;;11.57;2.20;;;16.10;58.30;;;;;;4920790;29;20075;-77
2022/04/25 06:32:25;;;;;;;10.73;2.42;;;16.40;57.10;;;;;;4911388;29;20044;-79
2022/04/25 06:34:51;;;;;;;7.47;1.88;;;16.70;56.70;;;;;;4902202;29;20050;-76
2022/04/25 06:37:17;;;;;;;11.48;2.50;;;16.90;56.40;;;;;;4901432;29;20052;-75
2022/04/25 06:39:42;;;;;;;7.55;1.95;;;17.00;56.20;;;;;;4932534;29;20088;-72
2022/04/25 06:42:11;;;;;;;11.30;2.45;;;17.10;56.00;;;;;;4901444;29;20048;-77
2022/04/25 06:44:38;;;;;;;7.22;1.85;;;17.20;55.80;;;;;;4901289;29;20048;-77
2022/04/25 06:47:04;;;;;;;11.15;2.42;;;17.30;55.80;;;;;;4932719;29;20064;-77
2022/04/25 06:49:30;;;;;;;9.63;2.20;;;17.30;55.70;;;;;;4903351;29;20060;-78
2022/04/25 06:51:58;;;;;;;7.97;1.67;;;17.40;55.70;;;;;;4900847;29;20052;-77
2022/04/25 06:54:25;;;;;;;6.97;1.98;;;17.40;55.60;;;;;;4900962;29;20464;-75
2022/04/25 06:56:55;;;;;;;9.02;1.83;;;17.40;55.40;;;;;;4919566;29;20044;-72
2022/04/25 06:59:21;;;;;;;8.55;1.83;;;17.50;55.80;;;;;;4934865;29;20051;-75
2022/04/25 07:01:51;;;;;;;9.77;1.75;;;17.50;55.70;;;;;;4919207;29;20048;-76
2022/04/25 07:04:17;;;;;;;9.13;2.00;;;17.60;55.70;;;;;;4902051;29;20036;-78
2022/04/25 07:06:44;;;;;;;8.63;1.77;;;17.70;55.80;;;;;;4900775;29;20044;-71
2022/04/25 07:09:13;;;;;;;10.25;2.55;;;17.80;55.90;;;;;;4900771;29;20033;-77
2022/04/25 07:11:46;;;;;;;4.25;1.70;;;17.90;55.90;;;;;;4899935;29;20465;-78
2022/04/25 07:14:19;;;;;;;14.80;2.80;;;18.00;55.10;;;;;;4884034;29;20044;-73
2022/04/25 07:16:49;;;;;;;7.97;2.72;;;18.10;54.60;;;;;;4900803;29;20092;-72
2022/04/25 07:19:15;;;;;;;8.45;2.10;;;18.30;54.70;;;;;;4900692;29;20422;-74
2022/04/25 07:29:54;;;;;;;7.43;2.40;;;18.80;53.60;;;;;;4899997;29;20378;-73
2022/04/25 07:32:23;;;;;;;5.55;2.30;;;18.80;53.30;;;;;;4900271;29;20055;-78
2022/04/25 07:34:49;;;;;;;8.95;2.72;;;18.90;53.20;;;;;;4900523;29;20071;-71
2022/04/25 07:37:16;;;;;;;12.02;4.22;;;18.90;53.80;;;;;;4900467;29;20409;-73
2022/04/25 07:39:42;;;;;;;9.32;4.10;;;19.00;53.60;;;;;;4901197;29;20048;-72
2022/04/25 07:42:08;;;;;;;9.27;3.08;;;19.00;53.20;;;;;;4901150;29;20394;-74
2022/04/25 07:44:34;;;;;;;6.32;3.53;;;18.50;52.10;;;;;;4899990;29;20040;-73
2022/04/25 07:47:00;;;;;;;7.75;3.70;;;18.30;53.90;;;;;;4900292;29;20445;-76
2022/04/25 07:49:27;;;;;;;8.43;3.22;;;18.40;54.30;;;;;;4900470;29;20053;-75
2022/04/25 07:51:55;;;;;;;8.52;3.58;;;18.50;54.50;;;;;;4900167;29;20445;-75
2022/04/25 07:54:21;;;;;;;5.53;2.30;;;18.60;54.70;;;;;;4901481;29;20068;-75
2022/04/25 07:56:47;;;;;;;5.13;2.55;;;18.60;55.30;;;;;;4918757;29;20052;-73
2022/04/25 07:59:13;;;;;;;8.95;2.97;;;18.70;54.70;;;;;;4919104;29;20063;-76
2022/04/25 08:01:39;;;;;;;6.00;2.58;;;18.70;54.70;;;;;;4914568;29;20067;-74
2022/04/25 08:04:05;;;;;;;7.10;2.22;;;18.60;54.70;;;;;;4931070;29;20053;-77
2022/04/25 08:06:31;;;;;;;6.57;2.70;;;18.60;54.80;;;;;;4900239;29;20045;-77
2022/04/25 08:08:57;;;;;;;4.72;2.03;;;18.60;54.90;;;;;;4899550;29;20041;-73
2022/04/25 08:11:23;;;;;;;3.75;2.38;;;18.60;54.90;;;;;;4899699;29;20052;-74
2022/04/25 08:19:20;;;;;;;11.32;2.67;;;18.40;55.20;;;;;;4900138;29;20052;-74
2022/04/25 08:21:47;;;;;;;13.02;2.67;;;18.40;55.40;;;;;;4899856;29;20056;-77
2022/04/25 08:24:13;;;;;;;8.23;2.75;;;18.50;55.60;;;;;;4900118;29;20111;-76
2022/04/25 08:26:40;;;;;;;10.35;2.72;;;18.50;55.60;;;;;;4899338;29;20454;-77
2022/04/25 08:29:06;;;;;;;9.70;2.75;;;18.50;55.50;;;;;;4900072;29;20052;-74
2022/04/25 08:31:33;;;;;;;17.05;2.30;;;18.50;55.50;;;;;;4900960;29;20059;-75
2022/04/25 08:34:00;;;;;;;8.85;2.30;;;18.50;56.30;;;;;;4899214;29;20076;-73
2022/04/25 08:36:26;;;;;;;11.05;2.47;;;18.40;55.80;;;;;;4899720;29;20052;-75
2022/04/25 08:38:51;;;;;;;15.07;2.83;;;18.40;56.20;;;;;;4930530;29;20049;-73
2022/04/25 08:41:29;;;;;;;15.93;2.42;;;18.50;56.30;;;;;;4898931;29;20052;-74
2022/04/25 08:43:55;;;;;;;9.82;2.97;;;18.50;56.50;;;;;;4899960;29;20058;-73
2022/04/25 08:46:23;;;;;;;7.82;2.65;;;18.60;56.60;;;;;;4899881;29;20059;-74
2022/04/25 08:48:50;;;;;;;7.85;2.65;;;18.50;56.60;;;;;;4900077;29;20071;-74
2022/04/25 08:51:16;;;;;;;8.02;2.25;;;18.50;56.70;;;;;;4900165;29;20084;-74
2022/04/25 08:53:44;;;;;;;10.68;2.20;;;18.50;56.70;;;;;;4930031;29;20057;-74
2022/04/25 08:56:12;;;;;;;8.57;1.92;;;18.60;56.90;;;;;;4899659;29;20351;-73
2022/04/25 08:58:41;;;;;;;9.13;2.25;;;18.60;57.00;;;;;;4899682;29;20462;-73
2022/04/25 09:01:09;;;;;;;9.77;2.15;;;18.50;57.00;;;;;;4899389;29;20048;-73
2022/04/25 09:03:35;;;;;;;6.75;1.73;;;18.60;57.10;;;;;;4920519;29;20095;-73
2022/04/25 09:06:01;;;;;;;10.52;2.50;;;18.60;57.20;;;;;;4922178;29;20079;-71
2022/04/25 09:08:27;;;;;;;13.00;2.47;;;18.50;57.30;;;;;;4922108;29;20408;-70
2022/04/25 09:12:09;;;;;;;10.45;2.03;;;18.50;58.10;;;;;;4921983;29;20062;-72
2022/04/25 09:13:40;;;;;;;7.45;1.80;;;18.50;57.10;;;;;;4921424;29;20541;-71
2022/04/25 09:16:06;;;;;;;6.82;2.30;;;18.40;57.30;;;;;;4913722;29;20051;-73
2022/04/25 09:18:32;;;;;;;10.07;2.13;;;18.40;56.50;;;;;;4923963;29;20119;-72
2022/04/25 09:21:04;;;;;;;4.63;1.73;;;18.30;56.30;;;;;;4922025;29;20083;-72
2022/04/25 09:23:29;;;;;;;7.25;1.83;;;18.30;56.60;;;;;;4921643;29;20056;-72
2022/04/25 09:26:09;;;;;;;13.82;1.90;;;18.20;56.80;;;;;;4921036;29;20048;-72
2022/04/25 09:28:47;;;;;;;6.22;2.38;;;18.20;55.90;;;;;;4916917;29;20573;-73
2022/04/25 09:31:14;;;;;;;10.82;1.92;;;18.10;56.20;;;;;;4903338;29;20060;-72
2022/04/25 09:33:40;;;;;;;4.55;1.60;;;18.10;56.70;;;;;;4920260;29;20055;-73
2022/04/25 09:36:06;;;;;;;6.60;1.75;;;18.00;56.50;;;;;;4921526;29;20052;-73
2022/04/25 09:38:34;;;;;;;7.45;1.67;;;18.00;56.30;;;;;;4918653;29;20131;-73
2022/04/25 09:41:01;;;;;;;5.78;2.08;;;18.00;56.20;;;;;;4919878;29;20174;-72
2022/04/25 09:43:31;;;;;;;4.10;2.00;;;18.10;56.20;;;;;;4936773;29;20056;-77
2022/04/25 09:46:04;;;;;;;6.05;2.33;;;18.00;55.90;;;;;;4905324;29;20350;-75
2022/04/25 09:48:31;;;;;;;12.50;2.22;;;17.80;55.50;;;;;;4917429;29;20052;-76
2022/04/25 09:51:05;;;;;;;13.23;2.20;;;17.70;56.60;;;;;;4902260;29;20048;-74
2022/04/25 09:53:53;;;;;;;5.88;1.92;;;17.60;57.30;;;;;;4900815;29;20049;-73
2022/04/25 09:56:27;;;;;;;6.20;1.83;;;17.70;58.30;;;;;;4903988;29;20082;-74
2022/04/25 09:59:03;;;;;;;9.10;1.95;;;17.70;58.20;;;;;;4903142;29;20040;-75
2022/04/25 10:01:34;;;;;;;5.25;1.48;;;17.70;58.20;;;;;;4901368;29;20063;-73
2022/04/25 10:04:00;;;;;;;9.48;1.98;;;17.70;58.20;;;;;;4916374;29;20080;-73
2022/04/25 10:06:34;;;;;;;12.50;1.55;;;17.70;58.30;;;;;;4901500;29;20048;-76
2022/04/25 10:09:06;;;;;;;4.88;1.38;;;17.70;58.50;;;;;;4901359;29;20049;-75
2022/04/25 10:11:39;;;;;;;6.57;1.55;;;17.70;58.60;;;;;;4900235;29;20052;-74
2022/04/25 10:14:05;;;;;;;;;;;17.70;58.80;;;;;;4900818;29;20052;-74
2022/04/25 10:16:34;;;;;;;6.80;1.50;;;17.70;58.90;;;;;;4915973;29;19923;-75
2022/04/25 10:18:59;;;;;;;5.72;1.67;;;17.70;58.80;;;;;;4900958;29;20063;-73
2022/04/25 10:21:29;;;;;;;8.60;1.70;;;17.70;58.70;;;;;;4893657;29;20132;-76
2022/04/25 10:23:57;;;;;;;6.00;1.65;;;17.70;58.60;;;;;;4900911;29;20429;-73
2022/04/25 10:26:30;;;;;;;7.00;1.85;;;17.70;58.70;;;;;;4901063;29;20044;-76
2022/04/25 10:28:57;;;;;;;7.88;1.50;;;17.70;58.70;;;;;;4915926;29;20417;-75
2022/04/25 10:31:41;;;;;;;5.57;1.70;;;17.70;58.80;;;;;;4900149;29;20044;-75
2022/04/25 10:34:07;;;;;;;5.72;1.50;;;17.70;58.90;;;;;;4900476;29;20049;-75
2022/04/25 10:36:36;;;;;;;5.72;1.48;;;17.70;59.00;;;;;;4900330;29;20115;-76
2022/04/25 10:39:25;;;;;;;7.20;1.42;;;17.70;59.80;;;;;;4900229;29;20045;-74
2022/04/25 10:44:40;;;;;;;7.45;1.33;;;17.60;59.30;;;;;;4899955;29;20385;-75
2022/04/25 10:47:05;;;;;;;4.57;1.30;;;17.60;59.20;;;;;;4901154;29;20044;-75
2022/04/25 10:49:38;;;;;;;6.20;1.30;;;17.70;59.20;;;;;;4918227;29;20459;-74
2022/04/25 10:52:25;;;;;;;6.15;1.70;;;17.70;59.00;;;;;;4920203;29;20048;-75
2022/04/25 10:54:51;;;;;;;8.40;1.80;;;17.60;58.80;;;;;;4918706;29;20044;-78
2022/04/25 10:57:18;;;;;;;9.52;2.03;;;17.70;58.70;;;;;;4913407;29;20451;-74
2022/04/25 10:59:44;;;;;;;8.27;1.40;;;17.60;58.50;;;;;;4899287;29;20128;-73
2022/04/25 11:02:39;;;;;;;6.13;1.52;;;17.60;58.50;;;;;;4899504;29;20095;-73
2022/04/25 11:05:11;;;;;;;11.52;2.00;;;17.60;58.30;;;;;;4892828;29;20075;-75
2022/04/25 11:07:41;;;;;;;6.38;1.60;;;17.60;58.20;;;;;;4900306;29;20052;-76
2022/04/25 11:10:27;;;;;;;9.43;1.42;;;17.60;58.10;;;;;;4901012;29;20056;-75
2022/04/25 11:12:59;;;;;;;15.70;1.80;;;17.60;58.10;;;;;;4894122;29;20124;-74
2022/04/25 11:15:42;;;;;;;7.30;1.75;;;17.60;58.10;;;;;;4900897;29;20160;-76
2022/04/25 11:18:33;;;;;;;10.38;2.10;;;17.60;58.00;;;;;;4900998;29;20056;-73
2022/04/25 11:21:05;;;;;;;12.80;2.22;;;17.60;58.50;;;;;;4901045;29;20052;-77
2022/04/25 11:23:33;;;;;;;11.63;2.55;;;17.60;58.70;;;;;;4900399;29;20068;-77
2022/04/25 11:25:59;;;;;;;12.50;2.70;;;17.70;58.40;;;;;;4915565;29;20056;-76
2022/04/25 11:28:35;;;;;;;11.35;2.50;;;17.70;59.00;;;;;;4900639;29;20052;-76
2022/04/25 11:31:26;;;;;;;10.05;2.35;;;17.70;59.60;;;;;;4899460;29;20044;-80
2022/04/25 11:34:05;;;;;;;8.07;1.60;;;17.70;60.40;;;;;;4900265;29;20120;-82
2022/04/25 11:37:07;;;;;;;12.90;2.30;;;17.60;60.50;;;;;;4899191;29;20080;-77
2022/04/25 11:42:24;;;;;;;8.80;1.83;;;17.60;60.30;;;;;;4900144;29;20429;-80
2022/04/25 11:44:50;;;;;;;9.25;2.17;;;17.60;59.70;;;;;;4914754;29;20053;-80
2022/04/25 11:47:26;;;;;;;14.82;2.35;;;17.60;60.20;;;;;;4930321;29;20045;-80
2022/04/25 11:49:59;;;;;;;13.57;2.40;;;17.60;60.30;;;;;;4900493;29;20444;-75
2022/04/25 11:52:26;;;;;;;13.52;2.35;;;17.60;59.70;;;;;;4899875;29;20036;-79
2022/04/25 11:54:53;;;;;;;11.93;2.30;;;17.60;59.80;;;;;;4899873;29;20369;-82
2022/04/25 11:57:21;;;;;;;9.50;2.42;;;17.50;59.80;;;;;;4883923;29;20044;-82
2022/04/25 11:59:46;;;;;;;12.20;2.00;;;17.50;59.80;;;;;;4899394;29;20049;-79
2022/04/25 12:02:12;;;;;;;10.40;2.00;;;17.50;59.20;;;;;;4910612;29;20052;-79
2022/04/25 12:04:39;;;;;;;6.72;2.10;;;17.50;58.80;;;;;;4919220;29;20052;-82
2022/04/25 12:07:06;;;;;;;12.52;1.65;;;17.50;58.60;;;;;;4918075;29;20052;-82
2022/04/25 12:18:14;;;;;;;10.50;1.90;;;17.50;58.40;;;;;;4931642;29;20095;-75
2022/04/25 12:20:42;;;;;;;9.07;2.22;;;17.50;58.40;;;;;;4933659;29;20475;-74
2022/04/25 12:23:10;;;;;;;6.85;1.95;;;17.60;58.30;;;;;;4918800;29;20115;-74
2022/04/25 12:25:43;;;;;;;7.97;1.67;;;17.60;58.90;;;;;;4917673;29;20052;-73
2022/04/25 12:28:15;;;;;;;8.65;2.20;;;17.50;57.20;;;;;;4917814;29;20058;-73
2022/04/25 12:30:51;;;;;;;16.00;2.53;;;17.50;57.10;;;;;;4917492;29;20056;-72
2022/04/25 12:33:20;;;;;;;24.15;2.75;;;17.50;57.90;;;;;;4900234;29;20049;-76
2022/04/25 12:35:47;;;;;;;11.48;2.30;;;17.50;58.30;;;;;;4899209;29;20044;-77
2022/04/25 12:38:32;;;;;;;12.20;2.85;;;17.50;58.50;;;;;;4902606;29;20120;-77
2022/04/25 12:40:58;;;;;;;12.02;2.42;;;17.60;59.40;;;;;;4934184;29;20085;-76
2022/04/25 12:43:40;;;;;;;7.07;2.05;;;17.60;58.90;;;;;;4902859;29;20053;-77
2022/04/25 12:46:11;;;;;;;9.93;2.15;;;17.60;58.20;;;;;;4900257;29;20048;-79
2022/04/25 12:49:00;;;;;;;12.93;2.20;;;17.60;58.80;;;;;;4902433;29;20067;-81
2022/04/25 12:51:37;;;;;;;11.98;2.00;;;17.60;57.20;;;;;;4902521;29;20358;-79
2022/04/25 12:54:05;;;;;;;12.30;2.00;;;17.60;57.30;;;;;;4902350;29;20472;-76
2022/04/25 12:56:34;;;;;;;15.93;2.70;;;17.60;57.50;;;;;;4902459;29;20453;-72
2022/04/25 12:59:01;;;;;;;9.13;2.08;;;17.60;57.40;;;;;;4903132;29;20056;-72
2022/04/25 13:01:31;;;;;;;5.50;2.25;;;17.60;57.40;;;;;;4903404;29;20132;-73
2022/04/25 13:04:07;;;;;;;7.05;2.15;;;17.60;57.50;;;;;;4903512;29;20418;-75
2022/04/25 13:06:35;;;;;;;7.30;1.92;;;17.60;57.40;;;;;;4934088;29;20064;-73
2022/04/25 13:09:01;;;;;;;5.72;1.42;;;17.60;57.40;;;;;;4903338;29;20135;-74
2022/04/25 13:11:27;;;;;;;7.25;1.50;;;17.60;57.40;;;;;;4902959;29;20040;-74
2022/04/25 13:13:53;;;;;;;4.40;1.67;;;17.60;57.50;;;;;;4903367;29;20123;-74
2022/04/25 13:16:18;;;;;;;7.47;1.67;;;17.60;57.50;;;;;;4903684;29;20560;-75
2022/04/25 13:18:44;;;;;;;6.40;2.00;;;17.60;57.50;;;;;;4903791;29;20103;-73
2022/04/25 13:21:13;;;;;;;7.20;1.27;;;17.60;57.40;;;;;;4902982;29;20088;-73
2022/04/25 13:23:39;;;;;;;8.63;1.90;;;17.60;57.30;;;;;;4903072;29;20057;-74
2022/04/25 13:26:05;;;;;;;5.20;1.33;;;17.60;57.20;;;;;;4902482;29;20107;-74
2022/04/25 13:28:31;;;;;;;5.55;1.55;;;17.60;57.10;;;;;;4933378;29;20091;-74